sensor_id;sensor_type;location;lat;lon;timestamp;P1;durP1;ratioP1;P2;durP2;ratioP2
80711;SDS011;70078;51.596;5.678;2023-06-26T00:01:06;15.63;;;13.63;;
80711;SDS011;70078;51.596;5.678;2023-06-26T00:03:34;15.30;;;13.65;;
80711;SDS011;70078;51.596;5.678;2023-06-26T00:05:59;16.40;;;13.80;;
80711;SDS011;70078;51.596;5.678;2023-06-26T00:08:25;15.35;;;13.75;;
80711;SDS011;70078;51.596;5.678;2023-06-26T00:10:51;16.95;;;14.00;;
80711;SDS011;70078;51.596;5.678;2023-06-26T00:13:17;17.52;;;14.63;;
80711;SDS011;70078;51.596;5.678;2023-06-26T00:15:42;15.60;;;13.70;;
80711;SDS011;70078;51.596;5.678;2023-06-26T00:18:08;15.57;;;13.80;;
80711;SDS011;70078;51.596;5.678;2023-06-26T00:20:33;16.30;;;14.23;;
80711;SDS011;70078;51.596;5.678;2023-06-26T00:22:59;17.10;;;15.30;;
80711;SDS011;70078;51.596;5.678;2023-06-26T00:25:25;18.20;;;14.65;;
80711;SDS011;70078;51.596;5.678;2023-06-26T00:27:50;14.93;;;13.30;;
80711;SDS011;70078;51.596;5.678;2023-06-26T00:30:15;15.65;;;12.45;;
80711;SDS011;70078;51.596;5.678;2023-06-26T00:32:41;14.02;;;11.80;;
80711;SDS011;70078;51.596;5.678;2023-06-26T00:35:06;14.38;;;12.02;;
80711;SDS011;70078;51.596;5.678;2023-06-26T00:37:32;13.70;;;11.40;;
80711;SDS011;70078;51.596;5.678;2023-06-26T00:39:57;12.10;;;10.48;;
80711;SDS011;70078;51.596;5.678;2023-06-26T00:42:23;12.70;;;10.55;;
80711;SDS011;70078;51.596;5.678;2023-06-26T00:44:48;14.02;;;10.43;;
80711;SDS011;70078;51.596;5.678;2023-06-26T00:47:14;11.60;;;10.40;;
80711;SDS011;70078;51.596;5.678;2023-06-26T00:49:41;14.60;;;11.10;;
80711;SDS011;70078;51.596;5.678;2023-06-26T00:52:06;13.98;;;10.55;;
80711;SDS011;70078;51.596;5.678;2023-06-26T00:54:32;12.35;;;11.05;;
80711;SDS011;70078;51.596;5.678;2023-06-26T00:56:57;11.20;;;9.90;;
80711;SDS011;70078;51.596;5.678;2023-06-26T00:59:23;13.70;;;9.73;;
80711;SDS011;70078;51.596;5.678;2023-06-26T01:01:48;10.95;;;9.85;;
80711;SDS011;70078;51.596;5.678;2023-06-26T01:04:14;12.10;;;10.27;;
80711;SDS011;70078;51.596;5.678;2023-06-26T01:06:46;11.80;;;10.13;;
80711;SDS011;70078;51.596;5.678;2023-06-26T01:09:18;13.13;;;10.38;;
80711;SDS011;70078;51.596;5.678;2023-06-26T01:11:45;11.05;;;9.95;;
80711;SDS011;70078;51.596;5.678;2023-06-26T01:14:11;13.02;;;10.63;;
80711;SDS011;70078;51.596;5.678;2023-06-26T01:16:37;13.80;;;9.80;;
80711;SDS011;70078;51.596;5.678;2023-06-26T01:19:06;12.18;;;9.50;;
80711;SDS011;70078;51.596;5.678;2023-06-26T01:24:07;12.25;;;8.65;;
80711;SDS011;70078;51.596;5.678;2023-06-26T01:26:45;10.30;;;8.70;;
80711;SDS011;70078;51.596;5.678;2023-06-26T01:29:13;15.02;;;9.57;;
80711;SDS011;70078;51.596;5.678;2023-06-26T01:31:40;12.38;;;9.63;;
80711;SDS011;70078;51.596;5.678;2023-06-26T01:34:07;11.68;;;9.73;;
80711;SDS011;70078;51.596;5.678;2023-06-26T01:36:33;12.40;;;10.18;;
80711;SDS011;70078;51.596;5.678;2023-06-26T01:38:58;14.75;;;10.65;;
80711;SDS011;70078;51.596;5.678;2023-06-26T01:41:39;15.18;;;11.02;;
80711;SDS011;70078;51.596;5.678;2023-06-26T01:46:36;13.68;;;9.98;;
80711;SDS011;70078;51.596;5.678;2023-06-26T01:51:54;14.77;;;9.38;;
80711;SDS011;70078;51.596;5.678;2023-06-26T01:54:33;12.55;;;9.95;;
80711;SDS011;70078;51.596;5.678;2023-06-26T01:57:03;12.65;;;9.38;;
80711;SDS011;70078;51.596;5.678;2023-06-26T01:59:30;12.73;;;8.43;;
80711;SDS011;70078;51.596;5.678;2023-06-26T02:01:57;12.90;;;8.68;;
80711;SDS011;70078;51.596;5.678;2023-06-26T02:04:22;10.88;;;9.02;;
80711;SDS011;70078;51.596;5.678;2023-06-26T02:06:48;10.95;;;8.65;;
80711;SDS011;70078;51.596;5.678;2023-06-26T02:09:13;11.13;;;7.95;;
80711;SDS011;70078;51.596;5.678;2023-06-26T02:11:38;10.98;;;9.05;;
80711;SDS011;70078;51.596;5.678;2023-06-26T02:14:04;9.52;;;7.60;;
80711;SDS011;70078;51.596;5.678;2023-06-26T02:16:29;10.13;;;7.50;;
80711;SDS011;70078;51.596;5.678;2023-06-26T02:18:54;10.93;;;7.07;;
80711;SDS011;70078;51.596;5.678;2023-06-26T02:21:22;9.93;;;6.50;;
80711;SDS011;70078;51.596;5.678;2023-06-26T02:23:47;9.75;;;6.72;;
80711;SDS011;70078;51.596;5.678;2023-06-26T02:26:13;10.38;;;6.53;;
80711;SDS011;70078;51.596;5.678;2023-06-26T02:28:38;8.73;;;5.85;;
80711;SDS011;70078;51.596;5.678;2023-06-26T02:31:03;9.02;;;5.60;;
80711;SDS011;70078;51.596;5.678;2023-06-26T02:33:29;9.18;;;6.43;;
80711;SDS011;70078;51.596;5.678;2023-06-26T02:35:55;9.80;;;5.65;;
80711;SDS011;70078;51.596;5.678;2023-06-26T02:38:20;10.10;;;5.80;;
80711;SDS011;70078;51.596;5.678;2023-06-26T02:40:46;9.65;;;6.72;;
80711;SDS011;70078;51.596;5.678;2023-06-26T02:43:11;8.13;;;6.05;;
80711;SDS011;70078;51.596;5.678;2023-06-26T02:45:36;9.07;;;6.22;;
80711;SDS011;70078;51.596;5.678;2023-06-26T02:48:02;9.55;;;6.18;;
80711;SDS011;70078;51.596;5.678;2023-06-26T02:50:27;11.60;;;5.88;;
80711;SDS011;70078;51.596;5.678;2023-06-26T02:52:53;9.95;;;6.05;;
80711;SDS011;70078;51.596;5.678;2023-06-26T02:55:21;10.48;;;5.95;;
80711;SDS011;70078;51.596;5.678;2023-06-26T02:57:46;9.02;;;5.55;;
80711;SDS011;70078;51.596;5.678;2023-06-26T03:00:12;10.75;;;6.00;;
80711;SDS011;70078;51.596;5.678;2023-06-26T03:02:38;9.85;;;5.70;;
80711;SDS011;70078;51.596;5.678;2023-06-26T03:05:03;9.15;;;5.60;;
80711;SDS011;70078;51.596;5.678;2023-06-26T03:07:29;8.05;;;5.50;;
80711;SDS011;70078;51.596;5.678;2023-06-26T03:09:55;8.45;;;5.40;;
80711;SDS011;70078;51.596;5.678;2023-06-26T03:12:20;9.70;;;5.63;;
80711;SDS011;70078;51.596;5.678;2023-06-26T03:14:46;7.80;;;5.00;;
80711;SDS011;70078;51.596;5.678;2023-06-26T03:17:11;10.15;;;5.10;;
80711;SDS011;70078;51.596;5.678;2023-06-26T03:19:37;8.40;;;5.07;;
80711;SDS011;70078;51.596;5.678;2023-06-26T03:22:02;8.70;;;5.70;;
80711;SDS011;70078;51.596;5.678;2023-06-26T03:24:28;7.78;;;4.57;;
80711;SDS011;70078;51.596;5.678;2023-06-26T03:26:54;9.13;;;5.43;;
80711;SDS011;70078;51.596;5.678;2023-06-26T03:29:19;7.97;;;5.22;;
80711;SDS011;70078;51.596;5.678;2023-06-26T03:31:44;12.18;;;5.28;;
80711;SDS011;70078;51.596;5.678;2023-06-26T03:34:10;8.68;;;4.95;;
80711;SDS011;70078;51.596;5.678;2023-06-26T03:36:35;9.30;;;5.13;;
80711;SDS011;70078;51.596;5.678;2023-06-26T03:39:00;10.23;;;4.90;;
80711;SDS011;70078;51.596;5.678;2023-06-26T03:41:26;10.65;;;5.00;;
80711;SDS011;70078;51.596;5.678;2023-06-26T03:43:51;8.48;;;5.00;;
80711;SDS011;70078;51.596;5.678;2023-06-26T03:46:17;9.75;;;4.85;;
80711;SDS011;70078;51.596;5.678;2023-06-26T03:48:42;7.57;;;4.75;;
80711;SDS011;70078;51.596;5.678;2023-06-26T03:51:08;8.63;;;5.38;;
80711;SDS011;70078;51.596;5.678;2023-06-26T03:53:33;9.25;;;4.22;;
80711;SDS011;70078;51.596;5.678;2023-06-26T03:55:59;6.88;;;3.88;;
80711;SDS011;70078;51.596;5.678;2023-06-26T03:58:24;7.82;;;4.38;;
80711;SDS011;70078;51.596;5.678;2023-06-26T04:00:50;9.70;;;5.13;;
80711;SDS011;70078;51.596;5.678;2023-06-26T04:03:16;11.05;;;4.07;;
80711;SDS011;70078;51.596;5.678;2023-06-26T04:05:41;9.80;;;4.93;;
80711;SDS011;70078;51.596;5.678;2023-06-26T04:08:07;8.45;;;4.30;;
80711;SDS011;70078;51.596;5.678;2023-06-26T04:10:32;9.98;;;5.18;;
80711;SDS011;70078;51.596;5.678;2023-06-26T04:12:58;7.85;;;4.68;;
80711;SDS011;70078;51.596;5.678;2023-06-26T04:15:23;14.13;;;4.93;;
80711;SDS011;70078;51.596;5.678;2023-06-26T04:17:48;8.02;;;4.57;;
80711;SDS011;70078;51.596;5.678;2023-06-26T04:20:14;10.32;;;4.75;;
80711;SDS011;70078;51.596;5.678;2023-06-26T04:22:40;10.70;;;4.57;;
80711;SDS011;70078;51.596;5.678;2023-06-26T04:25:05;8.20;;;4.60;;
80711;SDS011;70078;51.596;5.678;2023-06-26T04:27:30;10.48;;;4.93;;
80711;SDS011;70078;51.596;5.678;2023-06-26T04:29:56;9.13;;;5.65;;
80711;SDS011;70078;51.596;5.678;2023-06-26T04:32:21;8.45;;;5.47;;
80711;SDS011;70078;51.596;5.678;2023-06-26T04:34:47;9.13;;;4.72;;
80711;SDS011;70078;51.596;5.678;2023-06-26T04:37:13;9.90;;;5.53;;
80711;SDS011;70078;51.596;5.678;2023-06-26T04:39:42;10.43;;;5.57;;
80711;SDS011;70078;51.596;5.678;2023-06-26T04:42:07;8.45;;;5.35;;
80711;SDS011;70078;51.596;5.678;2023-06-26T04:44:33;10.93;;;5.03;;
80711;SDS011;70078;51.596;5.678;2023-06-26T04:46:58;13.02;;;5.57;;
80711;SDS011;70078;51.596;5.678;2023-06-26T04:49:24;13.02;;;5.53;;
80711;SDS011;70078;51.596;5.678;2023-06-26T04:51:49;13.45;;;5.47;;
80711;SDS011;70078;51.596;5.678;2023-06-26T04:54:15;13.82;;;5.88;;
80711;SDS011;70078;51.596;5.678;2023-06-26T04:56:41;12.43;;;5.88;;
80711;SDS011;70078;51.596;5.678;2023-06-26T04:59:08;14.68;;;5.65;;
80711;SDS011;70078;51.596;5.678;2023-06-26T05:01:38;13.15;;;5.78;;
80711;SDS011;70078;51.596;5.678;2023-06-26T05:04:04;12.77;;;5.80;;
80711;SDS011;70078;51.596;5.678;2023-06-26T05:06:30;12.82;;;5.90;;
80711;SDS011;70078;51.596;5.678;2023-06-26T05:08:55;13.60;;;5.35;;
80711;SDS011;70078;51.596;5.678;2023-06-26T05:11:21;13.45;;;5.78;;
80711;SDS011;70078;51.596;5.678;2023-06-26T05:13:46;12.00;;;5.32;;
80711;SDS011;70078;51.596;5.678;2023-06-26T05:16:11;12.15;;;5.65;;
80711;SDS011;70078;51.596;5.678;2023-06-26T05:18:37;14.07;;;6.07;;
80711;SDS011;70078;51.596;5.678;2023-06-26T05:21:02;11.52;;;5.55;;
80711;SDS011;70078;51.596;5.678;2023-06-26T05:23:32;11.15;;;5.10;;
80711;SDS011;70078;51.596;5.678;2023-06-26T05:25:58;14.65;;;6.38;;
80711;SDS011;70078;51.596;5.678;2023-06-26T05:28:24;11.55;;;6.18;;
80711;SDS011;70078;51.596;5.678;2023-06-26T05:30:51;13.40;;;5.60;;
80711;SDS011;70078;51.596;5.678;2023-06-26T05:33:17;13.23;;;6.03;;
80711;SDS011;70078;51.596;5.678;2023-06-26T05:35:44;12.10;;;5.70;;
80711;SDS011;70078;51.596;5.678;2023-06-26T05:38:13;15.52;;;6.15;;
80711;SDS011;70078;51.596;5.678;2023-06-26T05:40:39;16.40;;;6.22;;
80711;SDS011;70078;51.596;5.678;2023-06-26T05:43:08;14.27;;;5.70;;
80711;SDS011;70078;51.596;5.678;2023-06-26T05:45:33;13.20;;;5.25;;
80711;SDS011;70078;51.596;5.678;2023-06-26T05:47:59;13.07;;;4.97;;
80711;SDS011;70078;51.596;5.678;2023-06-26T05:50:24;13.95;;;5.78;;
80711;SDS011;70078;51.596;5.678;2023-06-26T05:52:50;10.45;;;5.50;;
80711;SDS011;70078;51.596;5.678;2023-06-26T05:55:16;16.10;;;5.47;;
80711;SDS011;70078;51.596;5.678;2023-06-26T05:57:45;14.35;;;5.40;;
80711;SDS011;70078;51.596;5.678;2023-06-26T06:00:11;17.10;;;4.72;;
80711;SDS011;70078;51.596;5.678;2023-06-26T06:02:38;12.60;;;4.82;;
80711;SDS011;70078;51.596;5.678;2023-06-26T06:05:04;14.48;;;5.25;;
80711;SDS011;70078;51.596;5.678;2023-06-26T06:07:31;13.75;;;6.75;;
80711;SDS011;70078;51.596;5.678;2023-06-26T06:09:58;11.98;;;4.80;;
80711;SDS011;70078;51.596;5.678;2023-06-26T06:12:24;13.20;;;5.20;;
80711;SDS011;70078;51.596;5.678;2023-06-26T06:14:49;10.93;;;4.18;;
80711;SDS011;70078;51.596;5.678;2023-06-26T06:17:14;10.88;;;4.47;;
80711;SDS011;70078;51.596;5.678;2023-06-26T06:19:40;8.90;;;3.67;;
80711;SDS011;70078;51.596;5.678;2023-06-26T06:22:05;11.82;;;3.90;;
80711;SDS011;70078;51.596;5.678;2023-06-26T06:24:31;7.80;;;3.40;;
80711;SDS011;70078;51.596;5.678;2023-06-26T06:26:56;8.10;;;3.65;;
80711;SDS011;70078;51.596;5.678;2023-06-26T06:29:21;10.00;;;3.88;;
80711;SDS011;70078;51.596;5.678;2023-06-26T06:31:47;13.90;;;3.20;;
80711;SDS011;70078;51.596;5.678;2023-06-26T06:34:13;10.88;;;3.67;;
80711;SDS011;70078;51.596;5.678;2023-06-26T06:36:39;8.70;;;3.70;;
80711;SDS011;70078;51.596;5.678;2023-06-26T06:39:04;10.48;;;3.22;;
80711;SDS011;70078;51.596;5.678;2023-06-26T06:41:30;10.82;;;3.13;;
80711;SDS011;70078;51.596;5.678;2023-06-26T06:43:55;9.60;;;3.45;;
80711;SDS011;70078;51.596;5.678;2023-06-26T06:46:20;8.65;;;3.42;;
80711;SDS011;70078;51.596;5.678;2023-06-26T06:48:46;8.85;;;3.28;;
80711;SDS011;70078;51.596;5.678;2023-06-26T06:51:12;7.50;;;3.08;;
80711;SDS011;70078;51.596;5.678;2023-06-26T06:53:37;8.85;;;3.22;;
80711;SDS011;70078;51.596;5.678;2023-06-26T06:56:03;9.13;;;3.05;;
80711;SDS011;70078;51.596;5.678;2023-06-26T06:58:28;9.32;;;3.08;;
80711;SDS011;70078;51.596;5.678;2023-06-26T07:00:54;7.50;;;3.03;;
80711;SDS011;70078;51.596;5.678;2023-06-26T07:03:20;11.75;;;3.08;;
80711;SDS011;70078;51.596;5.678;2023-06-26T07:05:46;7.75;;;4.32;;
80711;SDS011;70078;51.596;5.678;2023-06-26T07:08:11;11.98;;;4.00;;
80711;SDS011;70078;51.596;5.678;2023-06-26T07:10:37;10.90;;;3.70;;
80711;SDS011;70078;51.596;5.678;2023-06-26T07:13:02;12.68;;;3.92;;
80711;SDS011;70078;51.596;5.678;2023-06-26T07:15:28;10.02;;;3.88;;
80711;SDS011;70078;51.596;5.678;2023-06-26T07:17:53;13.25;;;4.47;;
80711;SDS011;70078;51.596;5.678;2023-06-26T07:20:19;8.50;;;3.25;;
80711;SDS011;70078;51.596;5.678;2023-06-26T07:22:44;8.98;;;3.58;;
80711;SDS011;70078;51.596;5.678;2023-06-26T07:25:10;11.07;;;4.40;;
80711;SDS011;70078;51.596;5.678;2023-06-26T07:27:36;9.32;;;3.25;;
80711;SDS011;70078;51.596;5.678;2023-06-26T07:30:02;7.78;;;3.38;;
80711;SDS011;70078;51.596;5.678;2023-06-26T07:32:28;8.52;;;3.38;;
80711;SDS011;70078;51.596;5.678;2023-06-26T07:34:54;7.00;;;4.07;;
80711;SDS011;70078;51.596;5.678;2023-06-26T07:37:19;9.70;;;3.40;;
80711;SDS011;70078;51.596;5.678;2023-06-26T07:39:44;9.10;;;3.65;;
80711;SDS011;70078;51.596;5.678;2023-06-26T07:42:10;8.85;;;3.42;;
80711;SDS011;70078;51.596;5.678;2023-06-26T07:44:35;9.52;;;3.58;;
80711;SDS011;70078;51.596;5.678;2023-06-26T07:47:00;6.40;;;3.60;;
80711;SDS011;70078;51.596;5.678;2023-06-26T07:49:26;7.78;;;3.60;;
80711;SDS011;70078;51.596;5.678;2023-06-26T07:51:51;10.15;;;4.13;;
80711;SDS011;70078;51.596;5.678;2023-06-26T07:54:16;7.55;;;3.60;;
80711;SDS011;70078;51.596;5.678;2023-06-26T07:56:55;7.65;;;3.22;;
80711;SDS011;70078;51.596;5.678;2023-06-26T07:59:25;6.20;;;3.05;;
80711;SDS011;70078;51.596;5.678;2023-06-26T08:01:53;7.25;;;3.08;;
80711;SDS011;70078;51.596;5.678;2023-06-26T08:04:22;6.82;;;3.22;;
80711;SDS011;70078;51.596;5.678;2023-06-26T08:06:49;7.45;;;3.22;;
80711;SDS011;70078;51.596;5.678;2023-06-26T08:09:18;6.68;;;3.08;;
80711;SDS011;70078;51.596;5.678;2023-06-26T08:11:44;10.68;;;3.30;;
80711;SDS011;70078;51.596;5.678;2023-06-26T08:14:09;7.38;;;3.50;;
80711;SDS011;70078;51.596;5.678;2023-06-26T08:16:37;6.28;;;3.42;;
80711;SDS011;70078;51.596;5.678;2023-06-26T08:19:03;6.93;;;4.32;;
80711;SDS011;70078;51.596;5.678;2023-06-26T08:21:28;8.52;;;4.13;;
80711;SDS011;70078;51.596;5.678;2023-06-26T08:23:54;7.30;;;3.88;;
80711;SDS011;70078;51.596;5.678;2023-06-26T08:26:19;8.05;;;4.07;;
80711;SDS011;70078;51.596;5.678;2023-06-26T08:28:44;5.20;;;2.97;;
80711;SDS011;70078;51.596;5.678;2023-06-26T08:31:10;9.60;;;3.65;;
80711;SDS011;70078;51.596;5.678;2023-06-26T08:33:35;5.90;;;3.20;;
80711;SDS011;70078;51.596;5.678;2023-06-26T08:36:00;5.88;;;2.90;;
80711;SDS011;70078;51.596;5.678;2023-06-26T08:38:26;5.45;;;2.72;;
80711;SDS011;70078;51.596;5.678;2023-06-26T08:40:51;6.68;;;2.30;;
80711;SDS011;70078;51.596;5.678;2023-06-26T08:43:17;6.03;;;1.90;;
80711;SDS011;70078;51.596;5.678;2023-06-26T08:45:42;2.53;;;1.33;;
80711;SDS011;70078;51.596;5.678;2023-06-26T08:48:08;2.88;;;1.77;;
80711;SDS011;70078;51.596;5.678;2023-06-26T08:50:34;3.75;;;1.45;;
80711;SDS011;70078;51.596;5.678;2023-06-26T08:53:14;2.58;;;1.42;;
80711;SDS011;70078;51.596;5.678;2023-06-26T08:55:48;2.97;;;1.15;;
80711;SDS011;70078;51.596;5.678;2023-06-26T08:58:17;4.45;;;1.50;;
80711;SDS011;70078;51.596;5.678;2023-06-26T09:00:42;3.65;;;1.65;;
80711;SDS011;70078;51.596;5.678;2023-06-26T09:03:08;5.43;;;1.40;;
80711;SDS011;70078;51.596;5.678;2023-06-26T09:05:34;6.97;;;1.65;;
80711;SDS011;70078;51.596;5.678;2023-06-26T09:08:01;3.47;;;1.27;;
80711;SDS011;70078;51.596;5.678;2023-06-26T09:10:26;4.00;;;1.75;;
80711;SDS011;70078;51.596;5.678;2023-06-26T09:12:55;5.32;;;1.50;;
80711;SDS011;70078;51.596;5.678;2023-06-26T09:15:22;8.18;;;1.95;;
80711;SDS011;70078;51.596;5.678;2023-06-26T09:17:47;3.30;;;1.45;;
80711;SDS011;70078;51.596;5.678;2023-06-26T09:20:13;7.70;;;1.55;;
80711;SDS011;70078;51.596;5.678;2023-06-26T09:22:40;3.80;;;1.60;;
80711;SDS011;70078;51.596;5.678;2023-06-26T09:25:12;6.88;;;2.03;;
80711;SDS011;70078;51.596;5.678;2023-06-26T09:27:37;7.55;;;1.90;;
80711;SDS011;70078;51.596;5.678;2023-06-26T09:30:03;3.58;;;1.52;;
80711;SDS011;70078;51.596;5.678;2023-06-26T09:32:28;7.30;;;1.98;;
80711;SDS011;70078;51.596;5.678;2023-06-26T09:34:54;4.90;;;1.38;;
80711;SDS011;70078;51.596;5.678;2023-06-26T09:37:25;5.55;;;1.67;;
80711;SDS011;70078;51.596;5.678;2023-06-26T09:39:51;4.82;;;1.50;;
80711;SDS011;70078;51.596;5.678;2023-06-26T09:42:17;3.58;;;1.80;;
80711;SDS011;70078;51.596;5.678;2023-06-26T09:44:45;5.18;;;1.02;;
80711;SDS011;70078;51.596;5.678;2023-06-26T09:47:11;6.28;;;1.40;;
80711;SDS011;70078;51.596;5.678;2023-06-26T09:49:40;5.80;;;1.75;;
80711;SDS011;70078;51.596;5.678;2023-06-26T09:52:07;3.90;;;1.50;;
80711;SDS011;70078;51.596;5.678;2023-06-26T09:54:32;2.60;;;1.20;;
80711;SDS011;70078;51.596;5.678;2023-06-26T09:57:13;8.77;;;1.40;;
80711;SDS011;70078;51.596;5.678;2023-06-26T10:02:09;4.72;;;1.13;;
80711;SDS011;70078;51.596;5.678;2023-06-26T10:04:36;4.97;;;1.52;;
80711;SDS011;70078;51.596;5.678;2023-06-26T10:07:02;4.72;;;1.30;;
80711;SDS011;70078;51.596;5.678;2023-06-26T10:09:31;5.28;;;1.67;;
80711;SDS011;70078;51.596;5.678;2023-06-26T10:12:01;3.25;;;1.40;;
80711;SDS011;70078;51.596;5.678;2023-06-26T10:14:31;4.20;;;1.38;;
80711;SDS011;70078;51.596;5.678;2023-06-26T10:16:59;4.40;;;1.38;;
80711;SDS011;70078;51.596;5.678;2023-06-26T10:19:27;5.38;;;1.55;;
80711;SDS011;70078;51.596;5.678;2023-06-26T10:21:55;4.15;;;1.60;;
80711;SDS011;70078;51.596;5.678;2023-06-26T10:24:21;3.72;;;1.40;;
80711;SDS011;70078;51.596;5.678;2023-06-26T10:26:49;4.18;;;1.30;;
80711;SDS011;70078;51.596;5.678;2023-06-26T10:29:19;3.03;;;1.67;;
80711;SDS011;70078;51.596;5.678;2023-06-26T10:31:50;5.43;;;1.45;;
80711;SDS011;70078;51.596;5.678;2023-06-26T10:34:17;3.85;;;1.60;;
80711;SDS011;70078;51.596;5.678;2023-06-26T10:36:43;5.15;;;1.30;;
80711;SDS011;70078;51.596;5.678;2023-06-26T10:39:09;3.55;;;1.30;;
80711;SDS011;70078;51.596;5.678;2023-06-26T10:41:38;3.80;;;1.08;;
80711;SDS011;70078;51.596;5.678;2023-06-26T10:44:13;3.58;;;1.13;;
80711;SDS011;70078;51.596;5.678;2023-06-26T10:49:28;2.35;;;1.25;;
80711;SDS011;70078;51.596;5.678;2023-06-26T10:51:54;3.67;;;1.50;;
80711;SDS011;70078;51.596;5.678;2023-06-26T10:54:22;2.95;;;1.42;;
80711;SDS011;70078;51.596;5.678;2023-06-26T10:56:49;4.97;;;1.65;;
80711;SDS011;70078;51.596;5.678;2023-06-26T11:01:42;3.33;;;1.33;;
80711;SDS011;70078;51.596;5.678;2023-06-26T11:04:09;4.78;;;1.40;;
80711;SDS011;70078;51.596;5.678;2023-06-26T11:06:37;2.90;;;1.38;;
80711;SDS011;70078;51.596;5.678;2023-06-26T11:14:20;5.22;;;1.40;;
80711;SDS011;70078;51.596;5.678;2023-06-26T11:16:47;5.10;;;1.45;;
80711;SDS011;70078;51.596;5.678;2023-06-26T11:19:14;2.38;;;1.15;;
80711;SDS011;70078;51.596;5.678;2023-06-26T11:21:41;4.20;;;1.15;;
80711;SDS011;70078;51.596;5.678;2023-06-26T11:24:07;3.45;;;1.13;;
80711;SDS011;70078;51.596;5.678;2023-06-26T11:26:39;3.25;;;1.30;;
80711;SDS011;70078;51.596;5.678;2023-06-26T11:29:06;3.17;;;1.27;;
80711;SDS011;70078;51.596;5.678;2023-06-26T11:31:35;4.57;;;1.75;;
80711;SDS011;70078;51.596;5.678;2023-06-26T11:34:04;4.38;;;1.60;;
80711;SDS011;70078;51.596;5.678;2023-06-26T11:36:32;3.10;;;1.27;;
80711;SDS011;70078;51.596;5.678;2023-06-26T11:38:59;5.53;;;1.77;;
80711;SDS011;70078;51.596;5.678;2023-06-26T11:41:28;4.45;;;1.42;;
80711;SDS011;70078;51.596;5.678;2023-06-26T11:43:55;4.22;;;1.33;;
80711;SDS011;70078;51.596;5.678;2023-06-26T11:46:21;3.40;;;1.33;;
80711;SDS011;70078;51.596;5.678;2023-06-26T11:48:47;5.00;;;1.45;;
80711;SDS011;70078;51.596;5.678;2023-06-26T11:51:14;3.50;;;1.50;;
80711;SDS011;70078;51.596;5.678;2023-06-26T11:53:40;3.88;;;1.90;;
80711;SDS011;70078;51.596;5.678;2023-06-26T11:56:13;3.90;;;1.48;;
80711;SDS011;70078;51.596;5.678;2023-06-26T12:01:36;4.88;;;1.60;;
80711;SDS011;70078;51.596;5.678;2023-06-26T12:04:11;4.20;;;1.50;;
80711;SDS011;70078;51.596;5.678;2023-06-26T12:06:40;4.43;;;1.75;;
80711;SDS011;70078;51.596;5.678;2023-06-26T12:09:10;5.15;;;1.67;;
80711;SDS011;70078;51.596;5.678;2023-06-26T12:11:38;2.63;;;1.02;;
80711;SDS011;70078;51.596;5.678;2023-06-26T12:14:06;3.08;;;1.30;;
80711;SDS011;70078;51.596;5.678;2023-06-26T12:16:33;4.30;;;1.38;;
80711;SDS011;70078;51.596;5.678;2023-06-26T12:19:00;3.83;;;1.33;;
80711;SDS011;70078;51.596;5.678;2023-06-26T12:24:00;4.57;;;1.83;;
80711;SDS011;70078;51.596;5.678;2023-06-26T12:26:26;5.78;;;1.63;;
80711;SDS011;70078;51.596;5.678;2023-06-26T12:28:54;3.90;;;1.45;;
80711;SDS011;70078;51.596;5.678;2023-06-26T12:31:26;6.63;;;1.40;;
80711;SDS011;70078;51.596;5.678;2023-06-26T12:33:51;4.22;;;1.80;;
80711;SDS011;70078;51.596;5.678;2023-06-26T12:36:17;6.30;;;1.25;;
80711;SDS011;70078;51.596;5.678;2023-06-26T12:38:45;2.95;;;1.38;;
80711;SDS011;70078;51.596;5.678;2023-06-26T12:41:12;6.05;;;1.40;;
80711;SDS011;70078;51.596;5.678;2023-06-26T12:43:39;2.92;;;1.42;;
80711;SDS011;70078;51.596;5.678;2023-06-26T12:46:05;3.53;;;1.40;;
80711;SDS011;70078;51.596;5.678;2023-06-26T12:48:37;5.00;;;1.63;;
80711;SDS011;70078;51.596;5.678;2023-06-26T12:51:11;2.65;;;1.30;;
80711;SDS011;70078;51.596;5.678;2023-06-26T12:53:40;3.42;;;1.52;;
80711;SDS011;70078;51.596;5.678;2023-06-26T12:56:06;2.95;;;1.45;;
80711;SDS011;70078;51.596;5.678;2023-06-26T12:58:33;5.28;;;1.15;;
80711;SDS011;70078;51.596;5.678;2023-06-26T13:01:02;3.55;;;1.40;;
80711;SDS011;70078;51.596;5.678;2023-06-26T13:03:29;3.53;;;1.30;;
80711;SDS011;70078;51.596;5.678;2023-06-26T13:05:54;3.92;;;1.30;;
80711;SDS011;70078;51.596;5.678;2023-06-26T13:08:19;2.88;;;1.20;;
80711;SDS011;70078;51.596;5.678;2023-06-26T13:10:45;3.67;;;1.65;;
80711;SDS011;70078;51.596;5.678;2023-06-26T13:13:10;2.50;;;1.17;;
80711;SDS011;70078;51.596;5.678;2023-06-26T13:15:36;2.30;;;1.55;;
80711;SDS011;70078;51.596;5.678;2023-06-26T13:18:02;2.33;;;1.30;;
80711;SDS011;70078;51.596;5.678;2023-06-26T13:20:28;2.90;;;1.50;;
80711;SDS011;70078;51.596;5.678;2023-06-26T13:22:53;3.80;;;1.20;;
80711;SDS011;70078;51.596;5.678;2023-06-26T13:25:20;3.75;;;1.38;;
80711;SDS011;70078;51.596;5.678;2023-06-26T13:27:46;2.80;;;1.08;;
80711;SDS011;70078;51.596;5.678;2023-06-26T13:30:12;3.38;;;1.27;;
80711;SDS011;70078;51.596;5.678;2023-06-26T13:32:37;2.80;;;1.15;;
80711;SDS011;70078;51.596;5.678;2023-06-26T13:35:03;3.38;;;1.05;;
80711;SDS011;70078;51.596;5.678;2023-06-26T13:37:29;3.08;;;1.15;;
80711;SDS011;70078;51.596;5.678;2023-06-26T13:39:54;2.35;;;1.60;;
80711;SDS011;70078;51.596;5.678;2023-06-26T13:42:20;2.78;;;1.40;;
80711;SDS011;70078;51.596;5.678;2023-06-26T13:44:45;5.78;;;1.13;;
80711;SDS011;70078;51.596;5.678;2023-06-26T13:47:12;4.78;;;1.25;;
80711;SDS011;70078;51.596;5.678;2023-06-26T13:49:38;3.63;;;1.25;;
80711;SDS011;70078;51.596;5.678;2023-06-26T13:52:03;3.60;;;0.88;;
80711;SDS011;70078;51.596;5.678;2023-06-26T13:54:29;3.10;;;1.20;;
80711;SDS011;70078;51.596;5.678;2023-06-26T13:56:54;4.47;;;2.28;;
80711;SDS011;70078;51.596;5.678;2023-06-26T13:59:23;2.85;;;1.40;;
80711;SDS011;70078;51.596;5.678;2023-06-26T14:01:50;3.17;;;1.25;;
80711;SDS011;70078;51.596;5.678;2023-06-26T14:04:16;2.28;;;1.10;;
80711;SDS011;70078;51.596;5.678;2023-06-26T14:06:41;3.08;;;1.55;;
80711;SDS011;70078;51.596;5.678;2023-06-26T14:09:07;1.95;;;1.05;;
80711;SDS011;70078;51.596;5.678;2023-06-26T14:11:33;8.40;;;1.70;;
80711;SDS011;70078;51.596;5.678;2023-06-26T14:13:58;4.70;;;1.80;;
80711;SDS011;70078;51.596;5.678;2023-06-26T14:16:24;2.78;;;1.10;;
80711;SDS011;70078;51.596;5.678;2023-06-26T14:18:50;3.15;;;1.50;;
80711;SDS011;70078;51.596;5.678;2023-06-26T14:21:16;6.32;;;1.50;;
80711;SDS011;70078;51.596;5.678;2023-06-26T14:23:41;3.47;;;1.30;;
80711;SDS011;70078;51.596;5.678;2023-06-26T14:26:07;5.03;;;1.30;;
80711;SDS011;70078;51.596;5.678;2023-06-26T14:28:32;3.75;;;1.45;;
80711;SDS011;70078;51.596;5.678;2023-06-26T14:30:57;1.85;;;0.98;;
80711;SDS011;70078;51.596;5.678;2023-06-26T14:33:23;3.75;;;1.00;;
80711;SDS011;70078;51.596;5.678;2023-06-26T14:35:48;2.88;;;1.58;;
80711;SDS011;70078;51.596;5.678;2023-06-26T14:38:14;2.60;;;1.38;;
80711;SDS011;70078;51.596;5.678;2023-06-26T14:40:39;4.18;;;1.20;;
80711;SDS011;70078;51.596;5.678;2023-06-26T14:43:04;2.22;;;1.05;;
80711;SDS011;70078;51.596;5.678;2023-06-26T14:45:30;3.08;;;1.02;;
80711;SDS011;70078;51.596;5.678;2023-06-26T14:47:55;3.13;;;0.98;;
80711;SDS011;70078;51.596;5.678;2023-06-26T14:50:20;2.95;;;2.05;;
80711;SDS011;70078;51.596;5.678;2023-06-26T14:52:46;2.83;;;1.30;;
80711;SDS011;70078;51.596;5.678;2023-06-26T14:55:11;1.90;;;1.00;;
80711;SDS011;70078;51.596;5.678;2023-06-26T14:57:36;1.88;;;1.10;;
80711;SDS011;70078;51.596;5.678;2023-06-26T15:00:02;2.65;;;1.02;;
80711;SDS011;70078;51.596;5.678;2023-06-26T15:02:28;1.70;;;1.10;;
80711;SDS011;70078;51.596;5.678;2023-06-26T15:04:54;3.45;;;1.00;;